Time;durP1;ratioP1;P1;durP2;ratioP2;P2;SDS_P1;SDS_P2;PMS_P1;PMS_P2;Temp;Humidity;BMP_temperature;BMP_pressure;BME280_temperature;BME280_humidity;BME280_pressure;Samples;Min_cycle;Max_cycle;Signal;HPM_P1;HPM_P2
2023/12/20 00:00:10;;;;;;;103.18;68.85;;;;;;;10.80;nan;99274.44;5083668;28;20047;-69
2023/12/20 00:02:40;;;;;;;101.55;66.30;;;;;;;10.64;nan;99274.59;5082868;28;20051;-69
2023/12/20 00:05:09;;;;;;;105.68;66.57;;;;;;;10.64;nan;99279.88;5082640;28;20055;-68
2023/12/20 00:07:39;;;;;;;99.20;66.80;;;;;;;10.75;nan;99283.94;5084397;28;20317;-69
2023/12/20 00:10:10;;;;;;;108.05;68.22;;;;;;;10.68;nan;99280.34;5083414;28;20040;-69
2023/12/20 00:12:40;;;;;;;99.88;65.93;;;;;;;10.54;nan;99287.25;5089538;28;20075;-69
2023/12/20 00:15:10;;;;;;;105.93;68.05;;;;;;;10.62;nan;99284.53;5083178;28;20446;-67
2023/12/20 00:17:40;;;;;;;104.25;70.03;;;;;;;10.61;nan;99293.50;5083852;28;20135;-68
2023/12/20 00:20:10;;;;;;;108.03;67.80;;;;;;;10.60;nan;99289.19;5082893;28;20047;-68
2023/12/20 00:22:40;;;;;;;101.93;69.13;;;;;;;10.56;nan;99287.06;5082984;28;20426;-68
2023/12/20 00:25:09;;;;;;;112.07;67.47;;;;;;;10.78;nan;99294.19;5082649;28;20348;-69
2023/12/20 00:27:38;;;;;;;103.57;66.90;;;;;;;11.26;nan;99290.22;5082649;28;20044;-69
2023/12/20 00:30:09;;;;;;;101.47;67.20;;;;;;;11.32;nan;99289.50;5083447;28;20122;-68
2023/12/20 00:32:39;;;;;;;99.47;65.30;;;;;;;11.20;nan;99294.41;5082947;28;20048;-67
2023/12/20 00:35:09;;;;;;;104.93;65.95;;;;;;;11.06;nan;99295.25;5083175;28;20056;-68
2023/12/20 00:37:38;;;;;;;94.53;65.30;;;;;;;11.14;nan;99303.13;5081907;28;20517;-68
2023/12/20 00:40:09;;;;;;;104.45;64.07;;;;;;;10.97;nan;99301.63;5081191;28;20506;-67
2023/12/20 00:42:39;;;;;;;105.95;66.72;;;;;;;10.98;nan;99302.44;5064243;28;20136;-67
2023/12/20 00:45:09;;;;;;;103.30;64.32;;;;;;;10.96;nan;99304.44;5082230;28;20059;-68
2023/12/20 00:47:38;;;;;;;101.15;61.65;;;;;;;10.95;nan;99303.63;5083814;28;20044;-68
2023/12/20 00:50:09;;;;;;;100.07;62.35;;;;;;;10.92;nan;99313.75;5083358;28;20541;-66
2023/12/20 00:52:38;;;;;;;103.97;63.22;;;;;;;10.87;nan;99316.13;5074836;28;20044;-68
2023/12/20 00:55:08;;;;;;;100.97;63.95;;;;;;;10.38;nan;99319.16;5082665;28;20131;-67
2023/12/20 00:57:37;;;;;;;110.28;65.13;;;;;;;10.31;nan;99318.22;5082638;28;20101;-68
2023/12/20 01:00:09;;;;;;;94.88;65.38;;;;;;;10.40;nan;99322.44;5076631;28;20036;-67
2023/12/20 01:02:39;;;;;;;103.93;64.82;;;;;;;10.42;nan;99325.75;5081689;28;20098;-67
2023/12/20 01:05:11;;;;;;;99.63;64.93;;;;;;;10.12;nan;99319.47;5078630;28;20048;-67
2023/12/20 01:07:41;;;;;;;107.75;66.57;;;;;;;10.18;nan;99321.41;5079623;28;20342;-68
2023/12/20 01:10:12;;;;;;;106.40;64.80;;;;;;;10.39;nan;99331.41;5030589;28;20051;-68
2023/12/20 01:12:42;;;;;;;100.55;64.13;;;;;;;10.31;nan;99320.88;5069899;28;20126;-68
2023/12/20 01:15:12;;;;;;;100.85;68.05;;;;;;;10.13;nan;99328.22;5086363;28;20139;-68
2023/12/20 01:17:41;;;;;;;113.32;66.88;;;;;;;10.16;nan;99338.47;5084839;28;20067;-67
2023/12/20 01:20:11;;;;;;;100.70;65.43;;;;;;;10.12;nan;99339.81;5074768;28;20056;-68
2023/12/20 01:22:42;;;;;;;101.80;62.40;;;;;;;10.10;nan;99345.25;5085980;28;20115;-68
2023/12/20 01:25:12;;;;;;;120.32;69.10;;;;;;;10.05;nan;99339.66;5085275;28;20051;-68
2023/12/20 01:27:42;;;;;;;106.00;67.80;;;;;;;10.10;nan;99355.84;5086536;28;20048;-68
2023/12/20 01:30:12;;;;;;;103.43;63.95;;;;;;;9.97;nan;99352.09;5086766;28;20044;-68
2023/12/20 01:32:42;;;;;;;100.82;63.30;;;;;;;10.01;nan;99361.34;5086479;28;20040;-67
2023/12/20 01:35:12;;;;;;;99.65;64.03;;;;;;;9.96;nan;99367.16;5086204;28;20051;-68
2023/12/20 01:37:42;;;;;;;107.72;63.03;;;;;;;9.96;nan;99369.78;5085688;28;20068;-68
2023/12/20 01:40:13;;;;;;;107.97;64.93;;;;;;;9.90;nan;99373.97;5085232;28;20050;-68
2023/12/20 01:42:42;;;;;;;104.93;61.78;;;;;;;9.89;nan;99366.19;5077491;28;20453;-67
2023/12/20 01:45:12;;;;;;;98.32;63.78;;;;;;;9.92;nan;99371.13;5086091;28;20151;-68
2023/12/20 01:47:41;;;;;;;103.97;64.45;;;;;;;9.93;nan;99368.34;5086263;28;20052;-68
2023/12/20 01:50:11;;;;;;;102.63;63.10;;;;;;;10.03;nan;99356.72;5086378;28;20044;-68
2023/12/20 01:52:44;;;;;;;104.30;63.47;;;;;;;10.12;nan;99359.16;5086301;28;20101;-68
2023/12/20 01:55:15;;;;;;;103.90;63.33;;;;;;;10.03;nan;99364.66;5086038;28;20060;-66
2023/12/20 01:57:47;;;;;;;101.25;62.42;;;;;;;10.00;nan;99367.66;5086741;28;20051;-68
2023/12/20 02:00:18;;;;;;;95.50;63.03;;;;;;;10.07;nan;99365.97;5086149;28;20066;-67
2023/12/20 02:02:49;;;;;;;103.78;63.13;;;;;;;9.98;nan;99369.63;5078308;28;20044;-68
2023/12/20 02:05:19;;;;;;;106.00;62.88;;;;;;;9.98;nan;99373.13;5077809;28;20380;-68
2023/12/20 02:07:48;;;;;;;96.72;61.88;;;;;;;9.92;nan;99374.63;5086471;28;20105;-68
2023/12/20 02:10:18;;;;;;;97.50;61.35;;;;;;;10.00;nan;99380.88;5085008;28;20059;-67
2023/12/20 02:12:47;;;;;;;113.70;64.15;;;;;;;10.00;nan;99373.75;5086281;28;20058;-67
2023/12/20 02:15:17;;;;;;;108.25;64.82;;;;;;;10.06;nan;99386.31;5085193;28;20048;-68
2023/12/20 02:17:48;;;;;;;101.20;64.40;;;;;;;10.12;nan;99393.56;5081494;28;20086;-68
2023/12/20 02:20:18;;;;;;;103.50;63.22;;;;;;;10.15;nan;99395.88;5085102;28;20109;-68
2023/12/20 02:22:48;;;;;;;97.00;63.00;;;;;;;10.15;nan;99401.19;5085769;28;20151;-68
2023/12/20 02:25:18;;;;;;;101.40;65.43;;;;;;;10.32;nan;99409.84;5067598;28;20471;-68
2023/12/20 02:27:48;;;;;;;103.55;64.65;;;;;;;10.31;nan;99411.69;5086011;28;20055;-68
2023/12/20 02:30:18;;;;;;;104.35;64.68;;;;;;;10.45;nan;99412.75;5085451;28;20510;-68
2023/12/20 02:32:48;;;;;;;105.75;64.95;;;;;;;10.52;nan;99413.75;5084765;28;20127;-68
2023/12/20 02:35:18;;;;;;;105.32;64.18;;;;;;;10.53;nan;99419.88;5081806;28;20078;-68
2023/12/20 02:37:47;;;;;;;98.82;62.50;;;;;;;10.61;nan;99419.81;5058448;28;20051;-68
2023/12/20 02:40:16;;;;;;;101.30;64.18;;;;;;;10.74;nan;99434.13;5084742;28;20066;-68
2023/12/20 02:42:46;;;;;;;99.40;61.72;;;;;;;10.77;nan;99441.72;5084646;28;20563;-68
2023/12/20 02:45:16;;;;;;;104.03;63.83;;;;;;;10.89;nan;99436.81;5069260;28;20044;-68
2023/12/20 02:47:45;;;;;;;106.43;66.82;;;;;;;10.90;nan;99443.78;5069326;28;20537;-68
2023/12/20 02:50:15;;;;;;;102.88;65.00;;;;;;;10.92;nan;99444.44;5082132;28;20711;-68
2023/12/20 02:52:46;;;;;;;105.57;65.30;;;;;;;11.12;nan;99444.78;5078692;28;20662;-68
2023/12/20 02:55:15;;;;;;;104.25;66.32;;;;;;;11.25;nan;99452.97;5084150;28;20144;-68
2023/12/20 02:57:45;;;;;;;108.70;65.57;;;;;;;11.37;nan;99443.59;5081272;28;20055;-68
2023/12/20 03:00:15;;;;;;;106.05;65.38;;;;;;;11.55;nan;99453.88;5082520;28;20074;-68
2023/12/20 03:02:44;;;;;;;110.25;65.55;;;;;;;11.49;nan;99455.41;5089173;28;20075;-68
2023/12/20 03:05:13;;;;;;;100.63;66.10;;;;;;;11.64;nan;99463.38;5064882;28;20055;-68
2023/12/20 03:07:43;;;;;;;95.70;63.95;;;;;;;11.66;nan;99461.38;5080927;28;20040;-67
2023/12/20 03:10:13;;;;;;;98.07;64.13;;;;;;;11.82;nan;99463.06;5082929;28;20059;-68
2023/12/20 03:12:47;;;;;;;106.40;66.20;;;;;;;11.82;nan;99465.72;5081301;28;20074;-68
2023/12/20 03:15:17;;;;;;;103.82;63.67;;;;;;;12.03;nan;99465.84;5071802;28;20147;-68
2023/12/20 03:17:46;;;;;;;107.22;65.03;;;;;;;12.07;nan;99472.44;5065640;28;20048;-68
2023/12/20 03:20:16;;;;;;;97.25;63.95;;;;;;;12.12;nan;99472.72;5084034;28;20520;-68
2023/12/20 03:22:45;;;;;;;100.75;63.45;;;;;;;12.30;nan;99475.00;5085971;28;20475;-68
2023/12/20 03:25:15;;;;;;;96.88;62.15;;;;;;;12.44;nan;99479.44;5074627;28;20539;-67
2023/12/20 03:27:44;;;;;;;92.22;59.42;;;;;;;12.84;nan;99478.09;5061826;28;20076;-68
2023/12/20 03:30:14;;;;;;;88.82;60.22;;;;;;;13.29;nan;99485.75;5062574;28;20064;-68
2023/12/20 03:32:44;;;;;;;104.28;60.50;;;;;;;13.72;nan;99491.84;5065244;28;20608;-68
2023/12/20 03:35:14;;;;;;;89.85;55.50;;;;;;;14.29;nan;99493.47;5064038;28;20144;-68
2023/12/20 03:37:43;;;;;;;101.22;58.47;;;;;;;14.94;nan;99497.44;5048654;28;20590;-68
2023/12/20 03:40:13;;;;;;;84.38;52.72;;;;;;;15.05;nan;99505.69;5074671;28;20056;-68
2023/12/20 03:42:43;;;;;;;82.97;51.92;;;;;;;15.44;nan;99512.97;5084455;28;20164;-68
2023/12/20 03:45:12;;;;;;;78.97;52.38;;;;;;;16.07;nan;99513.38;5083050;28;20431;-68
2023/12/20 03:47:42;;;;;;;79.68;52.08;;;;;;;16.39;nan;99522.34;5082791;28;20048;-68
2023/12/20 03:50:12;;;;;;;79.40;51.70;;;;;;;16.74;nan;99526.38;5077712;28;20052;-68
2023/12/20 03:52:42;;;;;;;75.25;50.33;;;;;;;17.58;nan;99523.47;5084595;28;20051;-69
2023/12/20 03:55:11;;;;;;;76.10;49.75;;;;;;;17.88;nan;99527.13;5083513;28;20682;-68
2023/12/20 03:57:41;;;;;;;81.60;48.35;;;;;;;18.34;nan;99526.72;5081966;28;20076;-68
2023/12/20 04:00:12;;;;;;;74.43;50.80;;;;;;;18.67;nan;99539.81;5077979;28;20048;-68
2023/12/20 04:02:42;;;;;;;68.60;46.38;;;;;;;18.95;nan;99533.03;5079217;28;20446;-69
2023/12/20 04:05:12;;;;;;;74.72;47.60;;;;;;;18.68;nan;99537.91;5085731;28;20879;-69
2023/12/20 04:07:42;;;;;;;70.07;46.35;;;;;;;19.29;nan;99545.81;5074381;28;20044;-69
2023/12/20 04:10:12;;;;;;;67.57;48.13;;;;;;;18.90;nan;99541.78;5074790;28;20135;-68
2023/12/20 04:12:41;;;;;;;82.55;46.88;;;;;;;19.15;nan;99544.34;5080981;28;20044;-69
2023/12/20 04:15:11;;;;;;;71.70;46.58;;;;;;;19.62;nan;99551.56;5087105;28;20052;-69
2023/12/20 04:17:41;;;;;;;67.43;48.65;;;;;;;20.03;nan;99555.25;5089565;28;20539;-69
2023/12/20 04:20:11;;;;;;;67.88;46.63;;;;;;;20.16;nan;99553.16;5086407;28;20505;-69
2023/12/20 04:22:42;;;;;;;73.63;48.30;;;;;;;20.25;nan;99552.78;5090585;28;20529;-68
2023/12/20 04:25:12;;;;;;;67.75;46.80;;;;;;;20.82;nan;99551.13;5086847;28;20074;-69
2023/12/20 04:27:41;;;;;;;70.30;45.15;;;;;;;21.15;nan;99547.78;5081744;28;20134;-68
2023/12/20 04:30:11;;;;;;;67.40;42.70;;;;;;;21.17;nan;99553.72;5084977;28;20039;-68
2023/12/20 04:32:41;;;;;;;66.75;44.38;;;;;;;20.48;nan;99548.25;5090935;28;20125;-69
2023/12/20 04:35:10;;;;;;;65.30;42.80;;;;;;;20.78;nan;99558.03;5076796;28;20048;-68
2023/12/20 04:37:41;;;;;;;73.10;46.42;;;;;;;20.86;nan;99566.56;5088152;28;20052;-68
2023/12/20 04:40:12;;;;;;;67.35;44.08;;;;;;;21.10;nan;99559.25;5085934;28;20051;-69
2023/12/20 04:42:41;;;;;;;70.00;46.25;;;;;;;21.10;nan;99551.16;5084655;28;20689;-70
2023/12/20 04:45:12;;;;;;;66.88;45.47;;;;;;;20.97;nan;99549.56;5087298;28;20048;-70
2023/12/20 04:47:42;;;;;;;61.90;43.70;;;;;;;20.32;nan;99553.50;5079928;28;20051;-71
2023/12/20 04:50:13;;;;;;;61.22;44.17;;;;;;;19.96;nan;99549.97;5084372;28;20050;-71
2023/12/20 04:52:43;;;;;;;65.60;45.00;;;;;;;19.77;nan;99548.44;5082638;28;20483;-70
2023/12/20 04:55:12;;;;;;;63.80;45.40;;;;;;;19.51;nan;99546.97;5083350;28;20043;-71
2023/12/20 04:57:42;;;;;;;65.72;46.28;;;;;;;19.26;nan;99549.75;5094389;28;20056;-71
2023/12/20 05:00:15;;;;;;;67.40;44.67;;;;;;;18.96;nan;99545.44;5085474;28;20051;-71
2023/12/20 05:02:45;;;;;;;53.22;40.50;;;;;;;19.39;nan;99535.31;5087440;28;20421;-71
2023/12/20 05:05:15;;;;;;;64.20;41.65;;;;;;;19.27;nan;99539.84;5088076;28;20048;-70
2023/12/20 05:07:45;;;;;;;67.38;42.42;;;;;;;19.01;nan;99537.53;5090369;28;20045;-71
2023/12/20 05:10:14;;;;;;;74.47;44.95;;;;;;;18.83;nan;99531.13;5085023;28;20561;-71
2023/12/20 05:12:44;;;;;;;76.55;45.25;;;;;;;18.67;nan;99520.19;5092606;28;20052;-72
2023/12/20 05:15:13;;;;;;;69.65;47.03;;;;;;;18.74;nan;99527.13;5082772;28;20706;-70
2023/12/20 05:17:43;;;;;;;61.63;43.63;;;;;;;18.85;nan;99529.03;5086425;28;20093;-71
2023/12/20 05:20:13;;;;;;;97.07;44.42;;;;;;;18.89;nan;99526.72;5086007;28;21195;-71
2023/12/20 05:22:42;;;;;;;59.72;42.20;;;;;;;18.98;nan;99524.56;5086359;28;20043;-70
2023/12/20 05:25:12;;;;;;;58.00;38.00;;;;;;;18.87;nan;99520.75;5083740;28;20044;-71
2023/12/20 05:27:41;;;;;;;63.20;40.13;;;;;;;18.86;nan;99519.09;5075061;28;20048;-71
2023/12/20 05:30:11;;;;;;;58.78;38.75;;;;;;;19.00;nan;99520.59;5079317;28;20071;-71
2023/12/20 05:32:41;;;;;;;54.15;36.20;;;;;;;18.88;nan;99521.59;5083921;28;20149;-69
2023/12/20 05:35:11;;;;;;;58.00;38.65;;;;;;;18.87;nan;99522.63;5085998;28;20067;-71
2023/12/20 05:37:41;;;;;;;53.72;40.28;;;;;;;19.09;nan;99518.41;5086999;28;20052;-72
2023/12/20 05:40:11;;;;;;;58.65;39.85;;;;;;;19.15;nan;99518.31;5074432;28;20044;-70
2023/12/20 05:42:41;;;;;;;55.22;40.35;;;;;;;19.27;nan;99523.72;5093385;28;20672;-71
2023/12/20 05:45:11;;;;;;;65.60;40.10;;;;;;;19.25;nan;99513.19;5085407;28;20558;-71
2023/12/20 05:47:40;;;;;;;64.68;41.58;;;;;;;19.40;nan;99512.78;5085455;28;20387;-74
2023/12/20 05:50:10;;;;;;;62.67;40.95;;;;;;;19.38;nan;99509.53;5083827;28;20466;-71
2023/12/20 05:52:39;;;;;;;58.72;40.70;;;;;;;19.58;nan;99498.50;5076697;28;20076;-69
2023/12/20 05:55:08;;;;;;;73.78;43.42;;;;;;;19.40;nan;99493.97;5078850;28;20106;-69
2023/12/20 05:57:38;;;;;;;73.05;42.92;;;;;;;19.52;nan;99492.16;5098451;28;20135;-72
2023/12/20 06:00:09;;;;;;;62.25;39.72;;;;;;;20.08;nan;99482.75;5048909;28;20044;-70
2023/12/20 06:02:41;;;;;;;55.38;38.20;;;;;;;20.31;nan;99476.56;5073853;28;20044;-70
2023/12/20 06:05:11;;;;;;;72.57;41.30;;;;;;;20.11;nan;99468.81;5087401;28;20070;-69
2023/12/20 06:07:41;;;;;;;60.33;38.75;;;;;;;20.46;nan;99474.19;5084643;28;20047;-70
2023/12/20 06:10:12;;;;;;;51.25;37.55;;;;;;;20.63;nan;99469.69;5084762;28;20047;-70
2023/12/20 06:12:41;;;;;;;56.85;36.40;;;;;;;21.00;nan;99470.16;5085078;28;20051;-70
2023/12/20 06:15:11;;;;;;;51.15;35.55;;;;;;;21.02;nan;99466.13;5077127;28;20176;-72
2023/12/20 06:17:40;;;;;;;59.40;34.10;;;;;;;21.27;nan;99457.75;5080581;28;20044;-72
2023/12/20 06:20:11;;;;;;;51.20;35.53;;;;;;;21.34;nan;99450.31;5080520;28;20044;-72
2023/12/20 06:22:40;;;;;;;60.13;36.15;;;;;;;21.08;nan;99440.94;5065196;28;20121;-72
2023/12/20 06:25:10;;;;;;;55.80;36.00;;;;;;;21.38;nan;99445.25;5089401;28;20048;-72
2023/12/20 06:27:40;;;;;;;63.63;40.63;;;;;;;21.62;nan;99444.03;5083965;28;20058;-72
2023/12/20 06:30:11;;;;;;;63.88;41.58;;;;;;;21.60;nan;99437.25;5079031;28;20131;-71
2023/12/20 06:32:42;;;;;;;65.70;39.65;;;;;;;21.49;nan;99438.97;5073500;28;20057;-71
2023/12/20 06:35:11;;;;;;;58.03;40.03;;;;;;;20.89;nan;99438.72;5081845;28;20270;-71
2023/12/20 06:37:42;;;;;;;60.38;41.35;;;;;;;21.00;nan;99430.56;5075169;28;20175;-70
2023/12/20 06:40:12;;;;;;;61.15;40.80;;;;;;;20.90;nan;99433.06;5086558;28;20044;-69
2023/12/20 06:42:46;;;;;;;62.80;39.03;;;;;;;21.09;nan;99431.00;5087945;28;20444;-69
2023/12/20 06:45:26;;;;;;;68.20;44.78;;;;;;;21.62;nan;99430.56;5083527;28;20705;-69
2023/12/20 06:47:56;;;;;;;74.20;46.97;;;;;;;21.60;nan;99421.88;5083028;28;20123;-71
2023/12/20 06:50:29;;;;;;;63.60;48.08;;;;;;;21.50;nan;99414.47;5064595;28;20044;-66
2023/12/20 06:52:59;;;;;;;82.40;49.38;;;;;;;21.71;nan;99410.19;5058091;28;20048;-67
2023/12/20 06:55:29;;;;;;;67.43;48.72;;;;;;;21.63;nan;99407.94;5080885;28;20532;-66
2023/12/20 06:57:59;;;;;;;68.20;45.78;;;;;;;21.66;nan;99398.53;5084892;28;20039;-65
2023/12/20 07:00:28;;;;;;;66.57;43.13;;;;;;;21.67;nan;99398.28;5085782;28;20044;-66
2023/12/20 07:02:58;;;;;;;65.57;42.85;;;;;;;21.84;nan;99399.06;5089520;28;20097;-65
2023/12/20 07:05:27;;;;;;;66.47;44.63;;;;;;;21.90;nan;99395.38;5074419;28;20052;-65
2023/12/20 07:07:57;;;;;;;66.40;45.08;;;;;;;21.62;nan;99386.59;5092975;28;20044;-65
2023/12/20 07:10:27;;;;;;;64.18;47.08;;;;;;;21.82;nan;99386.88;5085258;28;20177;-65
2023/12/20 07:12:56;;;;;;;71.80;45.35;;;;;;;21.77;nan;99378.75;5077651;28;20056;-65
2023/12/20 07:15:26;;;;;;;79.15;48.00;;;;;;;21.88;nan;99370.53;5084343;28;20048;-66
2023/12/20 07:17:56;;;;;;;84.28;49.10;;;;;;;21.79;nan;99368.50;5078900;28;20142;-65
2023/12/20 07:20:27;;;;;;;75.88;48.15;;;;;;;21.85;nan;99364.81;5074702;28;20050;-65
2023/12/20 07:22:56;;;;;;;71.00;47.92;;;;;;;21.81;nan;99359.13;5054638;28;20409;-65
2023/12/20 07:25:26;;;;;;;72.30;48.28;;;;;;;21.84;nan;99360.50;5065239;28;20043;-65
2023/12/20 07:27:56;;;;;;;78.28;47.45;;;;;;;21.83;nan;99354.28;5062113;28;20145;-64
2023/12/20 07:30:26;;;;;;;79.28;47.38;;;;;;;21.93;nan;99348.25;5079170;28;20469;-65
2023/12/20 07:32:56;;;;;;;78.10;50.85;;;;;;;21.54;nan;99341.19;5077120;28;20121;-65
2023/12/20 07:35:26;;;;;;;79.80;51.85;;;;;;;21.71;nan;99339.28;5083885;28;20082;-65
2023/12/20 07:37:55;;;;;;;80.97;50.85;;;;;;;21.67;nan;99335.44;5066448;28;20064;-65
2023/12/20 07:40:24;;;;;;;71.38;49.58;;;;;;;21.85;nan;99330.59;5073260;28;20058;-65
2023/12/20 07:42:54;;;;;;;80.30;49.95;;;;;;;21.91;nan;99317.97;5064967;28;20054;-64
2023/12/20 07:45:23;;;;;;;76.05;50.33;;;;;;;21.99;nan;99322.16;5059026;28;20070;-65
2023/12/20 07:47:53;;;;;;;76.65;50.80;;;;;;;21.95;nan;99311.06;5104744;28;20047;-64
2023/12/20 07:50:23;;;;;;;72.72;49.45;;;;;;;22.00;nan;99316.47;5096169;27;20047;-64
2023/12/20 07:52:53;;;;;;;93.65;53.22;;;;;;;22.05;nan;99321.13;5070805;28;20052;-65
2023/12/20 07:55:22;;;;;;;88.43;52.40;;;;;;;21.98;nan;99315.94;5078278;28;20190;-65
2023/12/20 07:57:52;;;;;;;80.55;51.90;;;;;;;21.98;nan;99307.84;5086016;28;20043;-64
2023/12/20 08:00:21;;;;;;;73.55;51.28;;;;;;;21.92;nan;99308.81;5089539;28;20105;-65
2023/12/20 08:02:51;;;;;;;76.22;51.95;;;;;;;21.95;nan;99306.44;5082241;28;20082;-64
2023/12/20 08:05:20;;;;;;;68.63;49.20;;;;;;;21.90;nan;99295.59;5080139;28;20371;-65
2023/12/20 08:07:49;;;;;;;71.60;51.35;;;;;;;21.83;nan;99292.25;5091423;28;20054;-64
2023/12/20 08:10:19;;;;;;;83.53;52.33;;;;;;;21.72;nan;99284.28;5082625;28;20390;-64
2023/12/20 08:12:49;;;;;;;75.90;49.30;;;;;;;21.79;nan;99288.44;5081393;28;20043;-65
2023/12/20 08:15:18;;;;;;;77.70;48.85;;;;;;;21.77;nan;99282.47;5080937;28;20048;-65
2023/12/20 08:17:47;;;;;;;72.07;49.35;;;;;;;21.72;nan;99268.13;5078094;28;20127;-65
2023/12/20 08:20:17;;;;;;;83.70;47.83;;;;;;;21.57;nan;99271.41;5081510;28;20052;-65
2023/12/20 08:22:53;;;;;;;64.68;41.45;;;;;;;21.53;nan;99264.91;5082116;28;20048;-65
2023/12/20 08:25:23;;;;;;;61.67;38.92;;;;;;;21.49;nan;99267.28;5070874;28;20174;-65
2023/12/20 08:27:53;;;;;;;55.65;33.95;;;;;;;21.46;nan;99261.59;5082538;28;20481;-65
2023/12/20 08:30:22;;;;;;;48.22;31.95;;;;;;;21.44;nan;99258.31;5101618;28;20056;-66
2023/12/20 08:32:52;;;;;;;52.65;32.67;;;;;;;21.50;nan;99254.63;5099168;28;20054;-65
2023/12/20 08:35:22;;;;;;;56.28;31.98;;;;;;;21.51;nan;99240.06;5101089;28;20047;-65
2023/12/20 08:37:51;;;;;;;43.75;30.05;;;;;;;21.41;nan;99235.38;5104037;28;20526;-65
2023/12/20 08:40:23;;;;;;;48.90;30.67;;;;;;;21.41;nan;99242.66;5092082;28;20048;-64
2023/12/20 08:42:54;;;;;;;52.03;30.95;;;;;;;21.35;nan;99233.66;5100056;28;20066;-64
2023/12/20 08:45:24;;;;;;;47.95;30.67;;;;;;;21.37;nan;99230.75;5101043;28;20060;-64
2023/12/20 08:47:54;;;;;;;50.40;29.80;;;;;;;21.31;nan;99229.84;5088881;28;20127;-65
2023/12/20 08:50:26;;;;;;;55.80;31.48;;;;;;;21.27;nan;99226.03;5103150;28;20054;-65
2023/12/20 08:52:56;;;;;;;51.00;29.75;;;;;;;21.33;nan;99219.63;5093484;28;20530;-65
2023/12/20 08:55:28;;;;;;;48.45;30.73;;;;;;;21.37;nan;99219.97;5095610;28;20050;-66
2023/12/20 08:57:58;;;;;;;48.85;33.92;;;;;;;21.29;nan;99218.50;5097379;28;20117;-65
2023/12/20 09:00:27;;;;;;;56.38;35.60;;;;;;;21.22;nan;99209.78;5095780;28;20465;-65
2023/12/20 09:02:57;;;;;;;57.28;34.22;;;;;;;21.23;nan;99216.00;5097487;28;20051;-65
2023/12/20 09:05:26;;;;;;;53.65;35.88;;;;;;;21.26;nan;99210.09;5100667;27;20651;-65
2023/12/20 09:07:56;;;;;;;64.35;35.85;;;;;;;21.04;nan;99208.16;5094916;28;20048;-66
2023/12/20 09:10:26;;;;;;;51.63;34.10;;;;;;;20.93;nan;99200.97;5086453;28;20458;-65
2023/12/20 09:12:56;;;;;;;52.92;33.25;;;;;;;20.94;nan;99197.22;5081688;28;20055;-65
2023/12/20 09:15:27;;;;;;;58.78;33.72;;;;;;;20.83;nan;99200.03;5078452;28;20051;-66
2023/12/20 09:17:58;;;;;;;60.05;35.30;;;;;;;20.72;nan;99203.63;5084104;28;20147;-65
2023/12/20 09:20:28;;;;;;;58.65;34.05;;;;;;;20.81;nan;99194.88;5102748;28;20046;-66
2023/12/20 09:22:58;;;;;;;56.95;35.03;;;;;;;20.85;nan;99197.88;5097974;28;20047;-65
2023/12/20 09:25:29;;;;;;;67.68;35.42;;;;;;;20.87;nan;99201.16;5100578;28;20055;-66
2023/12/20 09:27:59;;;;;;;55.28;35.63;;;;;;;20.94;nan;99199.09;5101523;28;20141;-65
2023/12/20 09:30:29;;;;;;;59.83;36.95;;;;;;;20.84;nan;99190.91;5095258;27;20047;-63
2023/12/20 09:32:58;;;;;;;62.67;37.38;;;;;;;20.83;nan;99181.19;5078735;28;20047;-65
2023/12/20 09:35:28;;;;;;;60.30;36.92;;;;;;;20.72;nan;99184.78;5070108;28;20040;-64
2023/12/20 09:37:58;;;;;;;54.08;32.53;;;;;;;20.71;nan;99180.47;5078868;28;20054;-64
2023/12/20 09:40:29;;;;;;;54.47;32.83;;;;;;;20.68;nan;99179.06;5079335;28;20040;-65
2023/12/20 09:43:03;;;;;;;49.03;31.38;;;;;;;20.69;nan;99178.00;5086891;28;20356;-65
2023/12/20 09:45:32;;;;;;;53.00;31.58;;;;;;;20.66;nan;99173.13;5084000;28;20116;-65
2023/12/20 09:48:04;;;;;;;62.92;35.67;;;;;;;20.75;nan;99168.97;5097782;27;20547;-65
2023/12/20 09:50:33;;;;;;;64.28;36.30;;;;;;;20.71;nan;99159.75;5103788;28;20051;-65
2023/12/20 09:53:08;;;;;;;57.70;32.80;;;;;;;20.72;nan;99171.31;5105052;28;20051;-65
2023/12/20 09:55:40;;;;;;;54.88;31.50;;;;;;;20.76;nan;99165.19;5099356;28;20124;-64
2023/12/20 09:58:09;;;;;;;51.63;30.85;;;;;;;20.76;nan;99157.13;5106199;28;20047;-65
2023/12/20 10:00:38;;;;;;;46.15;29.77;;;;;;;20.74;nan;99156.56;5102252;27;20048;-65
2023/12/20 10:03:10;;;;;;;39.50;27.25;;;;;;;20.74;nan;99150.34;5082678;28;20043;-65
2023/12/20 10:05:43;;;;;;;54.63;28.20;;;;;;;20.71;nan;99148.16;5102119;27;20047;-65
2023/12/20 10:08:13;;;;;;;60.92;31.58;;;;;;;20.71;nan;99145.47;5105628;28;20052;-64
2023/12/20 10:10:42;;;;;;;44.53;28.70;;;;;;;20.73;nan;99143.34;5104815;27;20109;-64
2023/12/20 10:13:15;;;;;;;44.80;27.27;;;;;;;20.72;nan;99139.00;5091523;28;20504;-64
2023/12/20 10:15:46;;;;;;;52.13;27.77;;;;;;;20.69;nan;99139.50;5104531;27;20100;-65
2023/12/20 10:18:16;;;;;;;44.70;29.25;;;;;;;20.57;nan;99140.44;5088492;27;20155;-66
2023/12/20 10:20:46;;;;;;;47.25;27.08;;;;;;;20.54;nan;99132.84;5104663;27;20055;-65
2023/12/20 10:23:17;;;;;;;42.65;26.90;;;;;;;20.61;nan;99132.69;5086599;28;20058;-65
2023/12/20 10:25:59;;;;;;;50.78;27.77;;;;;;;20.49;nan;99138.13;5100196;27;20059;-65
2023/12/20 10:28:34;;;;;;;49.10;27.70;;;;;;;20.49;nan;99129.28;5108919;27;20131;-64
2023/12/20 10:31:04;;;;;;;45.90;28.15;;;;;;;20.37;nan;99131.22;5105187;27;20479;-65
2023/12/20 10:33:34;;;;;;;49.60;27.80;;;;;;;20.38;nan;99128.28;5075063;28;20048;-63
2023/12/20 10:36:04;;;;;;;51.75;27.88;;;;;;;20.34;nan;99127.16;5102742;27;20831;-64
2023/12/20 10:38:35;;;;;;;47.95;27.20;;;;;;;20.30;nan;99131.41;5106004;27;20478;-65
2023/12/20 10:41:07;;;;;;;49.70;26.75;;;;;;;20.22;nan;99120.19;5105956;27;20467;-65
2023/12/20 10:43:38;;;;;;;41.45;26.83;;;;;;;20.23;nan;99124.50;5092264;27;20055;-65
2023/12/20 10:46:08;;;;;;;50.58;25.85;;;;;;;20.23;nan;99119.94;5082136;28;20056;-65
2023/12/20 10:48:40;;;;;;;48.20;26.52;;;;;;;20.07;nan;99118.88;5105195;28;20100;-65
2023/12/20 10:51:11;;;;;;;39.33;23.67;;;;;;;19.97;nan;99120.56;5089469;27;20048;-65
2023/12/20 10:53:42;;;;;;;39.33;21.52;;;;;;;20.00;nan;99122.81;5086889;28;20071;-64
2023/12/20 10:56:19;;;;;;;32.47;22.47;;;;;;;19.93;nan;99119.44;5117482;27;20833;-65
2023/12/20 10:58:49;;;;;;;32.83;21.67;;;;;;;19.83;nan;99113.88;5101650;28;20298;-64
2023/12/20 11:01:20;;;;;;;38.88;21.17;;;;;;;19.70;nan;99109.63;5074410;28;20606;-64
2023/12/20 11:03:54;;;;;;;38.78;21.23;;;;;;;19.58;nan;99112.38;5100012;28;20069;-64
2023/12/20 11:07:07;;;;;;;41.33;22.80;;;;;;;19.44;nan;99105.66;5095664;28;20040;-65
2023/12/20 11:09:44;;;;;;;33.45;21.63;;;;;;;19.25;nan;99112.25;5092524;28;20043;-70
2023/12/20 11:12:43;;;;;;;37.75;22.60;;;;;;;19.05;nan;99114.50;5083988;28;20079;-69
2023/12/20 11:15:15;;;;;;;40.28;22.27;;;;;;;18.83;nan;99115.13;5066877;28;20117;-65
2023/12/20 11:17:59;;;;;;;41.63;23.40;;;;;;;18.69;nan;99112.91;5078841;28;20051;-64
2023/12/20 11:20:38;;;;;;;;;;;;;;;18.52;nan;99109.28;5085952;28;20036;-64
2023/12/20 11:23:11;;;;;;;36.30;23.73;;;;;;;18.38;nan;99122.09;5087580;28;20328;-70
2023/12/20 11:25:54;;;;;;;44.50;24.10;;;;;;;18.32;nan;99115.78;5098759;28;20116;-70
2023/12/20 11:28:25;;;;;;;41.70;26.77;;;;;;;18.38;nan;99106.81;5103189;28;20089;-70
2023/12/20 11:31:00;;;;;;;47.33;28.63;;;;;;;18.37;nan;99110.53;5098334;28;20170;-70
2023/12/20 11:33:37;;;;;;;61.25;29.70;;;;;;;18.48;nan;99106.25;5103262;28;20036;-69
2023/12/20 11:36:20;;;;;;;43.35;30.10;;;;;;;18.35;nan;99095.75;5084888;28;20040;-70
2023/12/20 11:38:57;;;;;;;46.20;32.13;;;;;;;18.34;nan;99105.66;5078144;28;20764;-70
2023/12/20 11:41:57;;;;;;;49.78;31.92;;;;;;;18.27;nan;99106.81;5074324;27;20528;-70
2023/12/20 11:44:30;;;;;;;56.17;32.77;;;;;;;18.14;nan;99110.56;5058776;28;20063;-70
2023/12/20 11:47:01;;;;;;;51.53;31.25;;;;;;;18.09;nan;99110.41;5060531;28;20378;-71